sensor_id;sensor_type;location;lat;lon;timestamp;temperature;humidity
21108;DHT22;10712;52.944;9.098;2023-04-24T00:00:20;11.80;90.10
21108;DHT22;10712;52.944;9.098;2023-04-24T00:02:46;11.90;90.10
21108;DHT22;10712;52.944;9.098;2023-04-24T00:05:16;11.90;90.10
21108;DHT22;10712;52.944;9.098;2023-04-24T00:07:44;12.00;90.00
21108;DHT22;10712;52.944;9.098;2023-04-24T00:10:11;12.00;89.80
21108;DHT22;10712;52.944;9.098;2023-04-24T00:12:38;12.00;89.80
21108;DHT22;10712;52.944;9.098;2023-04-24T00:15:04;12.10;89.70
21108;DHT22;10712;52.944;9.098;2023-04-24T00:17:31;12.10;89.60
21108;DHT22;10712;52.944;9.098;2023-04-24T00:19:57;12.10;89.10
21108;DHT22;10712;52.944;9.098;2023-04-24T00:22:27;12.00;89.10
21108;DHT22;10712;52.944;9.098;2023-04-24T00:24:54;12.00;89.10
21108;DHT22;10712;52.944;9.098;2023-04-24T00:27:20;12.00;89.00
21108;DHT22;10712;52.944;9.098;2023-04-24T00:29:46;12.00;88.80
21108;DHT22;10712;52.944;9.098;2023-04-24T00:32:13;12.00;88.50
21108;DHT22;10712;52.944;9.098;2023-04-24T00:34:39;12.00;88.00
21108;DHT22;10712;52.944;9.098;2023-04-24T00:37:05;12.00;87.90
21108;DHT22;10712;52.944;9.098;2023-04-24T00:39:31;12.00;87.70
21108;DHT22;10712;52.944;9.098;2023-04-24T00:41:57;11.90;87.50
21108;DHT22;10712;52.944;9.098;2023-04-24T00:44:24;12.00;87.10
21108;DHT22;10712;52.944;9.098;2023-04-24T00:46:50;12.00;86.50
21108;DHT22;10712;52.944;9.098;2023-04-24T00:49:20;12.00;86.30
21108;DHT22;10712;52.944;9.098;2023-04-24T00:51:47;12.00;86.30
21108;DHT22;10712;52.944;9.098;2023-04-24T00:54:15;11.90;86.20
21108;DHT22;10712;52.944;9.098;2023-04-24T00:56:42;12.00;85.50
21108;DHT22;10712;52.944;9.098;2023-04-24T00:59:09;12.00;85.20
21108;DHT22;10712;52.944;9.098;2023-04-24T01:01:36;12.00;84.90
21108;DHT22;10712;52.944;9.098;2023-04-24T01:04:02;11.90;85.00
21108;DHT22;10712;52.944;9.098;2023-04-24T01:06:29;11.90;85.10
21108;DHT22;10712;52.944;9.098;2023-04-24T01:08:57;11.90;84.90
21108;DHT22;10712;52.944;9.098;2023-04-24T01:11:26;11.90;84.80
21108;DHT22;10712;52.944;9.098;2023-04-24T01:13:52;11.90;84.40
21108;DHT22;10712;52.944;9.098;2023-04-24T01:16:19;11.80;84.40
21108;DHT22;10712;52.944;9.098;2023-04-24T01:18:46;11.80;84.30
21108;DHT22;10712;52.944;9.098;2023-04-24T01:21:15;11.80;84.40
21108;DHT22;10712;52.944;9.098;2023-04-24T01:23:45;11.80;84.50
21108;DHT22;10712;52.944;9.098;2023-04-24T01:26:13;11.70;84.70
21108;DHT22;10712;52.944;9.098;2023-04-24T01:28:40;11.70;85.00
21108;DHT22;10712;52.944;9.098;2023-04-24T01:31:06;11.70;85.10
21108;DHT22;10712;52.944;9.098;2023-04-24T01:33:33;11.60;85.40
21108;DHT22;10712;52.944;9.098;2023-04-24T01:35:59;11.60;85.60
21108;DHT22;10712;52.944;9.098;2023-04-24T01:38:25;11.60;85.50
21108;DHT22;10712;52.944;9.098;2023-04-24T01:40:52;11.60;85.50
21108;DHT22;10712;52.944;9.098;2023-04-24T01:43:19;11.60;85.60
21108;DHT22;10712;52.944;9.098;2023-04-24T01:45:44;11.60;85.90
21108;DHT22;10712;52.944;9.098;2023-04-24T01:48:12;11.50;86.00
21108;DHT22;10712;52.944;9.098;2023-04-24T01:50:38;11.60;86.10
21108;DHT22;10712;52.944;9.098;2023-04-24T01:53:04;11.60;86.10
21108;DHT22;10712;52.944;9.098;2023-04-24T01:55:30;11.60;86.10
21108;DHT22;10712;52.944;9.098;2023-04-24T01:57:56;11.60;85.90
21108;DHT22;10712;52.944;9.098;2023-04-24T02:00:23;11.60;85.90
21108;DHT22;10712;52.944;9.098;2023-04-24T02:02:51;11.60;85.90
21108;DHT22;10712;52.944;9.098;2023-04-24T02:05:17;11.60;85.80
21108;DHT22;10712;52.944;9.098;2023-04-24T02:07:43;11.60;85.50
21108;DHT22;10712;52.944;9.098;2023-04-24T02:10:09;11.60;85.60
21108;DHT22;10712;52.944;9.098;2023-04-24T02:12:35;11.60;85.40
21108;DHT22;10712;52.944;9.098;2023-04-24T02:15:01;11.60;85.40
21108;DHT22;10712;52.944;9.098;2023-04-24T02:17:28;11.60;85.20
21108;DHT22;10712;52.944;9.098;2023-04-24T02:19:54;11.60;85.20
21108;DHT22;10712;52.944;9.098;2023-04-24T02:22:19;11.60;85.00
21108;DHT22;10712;52.944;9.098;2023-04-24T02:24:45;11.60;84.80
21108;DHT22;10712;52.944;9.098;2023-04-24T02:27:14;11.60;84.50
21108;DHT22;10712;52.944;9.098;2023-04-24T02:29:40;11.60;84.30
21108;DHT22;10712;52.944;9.098;2023-04-24T02:32:06;11.60;84.20
21108;DHT22;10712;52.944;9.098;2023-04-24T02:34:32;11.60;84.20
21108;DHT22;10712;52.944;9.098;2023-04-24T02:36:59;11.60;83.80
21108;DHT22;10712;52.944;9.098;2023-04-24T02:39:24;11.60;83.50
21108;DHT22;10712;52.944;9.098;2023-04-24T02:41:51;11.60;83.50
21108;DHT22;10712;52.944;9.098;2023-04-24T02:44:17;11.60;83.30
21108;DHT22;10712;52.944;9.098;2023-04-24T02:46:43;11.60;82.70
21108;DHT22;10712;52.944;9.098;2023-04-24T02:49:09;11.60;82.50
21108;DHT22;10712;52.944;9.098;2023-04-24T02:51:35;11.60;82.60
21108;DHT22;10712;52.944;9.098;2023-04-24T02:54:03;11.50;82.20
21108;DHT22;10712;52.944;9.098;2023-04-24T02:56:29;11.50;81.30
21108;DHT22;10712;52.944;9.098;2023-04-24T02:58:57;11.50;81.00
21108;DHT22;10712;52.944;9.098;2023-04-24T03:01:22;11.50;80.70
21108;DHT22;10712;52.944;9.098;2023-04-24T03:03:48;11.50;80.00
21108;DHT22;10712;52.944;9.098;2023-04-24T03:06:14;11.50;79.80
21108;DHT22;10712;52.944;9.098;2023-04-24T03:08:40;11.50;79.70
21108;DHT22;10712;52.944;9.098;2023-04-24T03:11:06;11.50;79.60
21108;DHT22;10712;52.944;9.098;2023-04-24T03:13:32;11.50;79.10
21108;DHT22;10712;52.944;9.098;2023-04-24T03:15:58;11.50;79.50
21108;DHT22;10712;52.944;9.098;2023-04-24T03:18:23;11.50;79.00
21108;DHT22;10712;52.944;9.098;2023-04-24T03:20:51;11.50;79.00
21108;DHT22;10712;52.944;9.098;2023-04-24T03:23:17;11.50;79.20
21108;DHT22;10712;52.944;9.098;2023-04-24T03:25:44;11.40;79.20
21108;DHT22;10712;52.944;9.098;2023-04-24T03:28:11;11.50;78.60
21108;DHT22;10712;52.944;9.098;2023-04-24T03:30:41;11.50;78.60
21108;DHT22;10712;52.944;9.098;2023-04-24T03:33:08;11.50;78.10
21108;DHT22;10712;52.944;9.098;2023-04-24T03:35:39;11.50;77.70
21108;DHT22;10712;52.944;9.098;2023-04-24T03:38:08;11.50;77.80
21108;DHT22;10712;52.944;9.098;2023-04-24T03:40:52;11.50;77.70
21108;DHT22;10712;52.944;9.098;2023-04-24T03:43:50;11.50;77.90
21108;DHT22;10712;52.944;9.098;2023-04-24T03:46:16;11.50;78.10
21108;DHT22;10712;52.944;9.098;2023-04-24T03:48:49;11.50;78.20
21108;DHT22;10712;52.944;9.098;2023-04-24T03:51:17;11.40;78.80
21108;DHT22;10712;52.944;9.098;2023-04-24T03:53:46;11.40;79.10
21108;DHT22;10712;52.944;9.098;2023-04-24T03:56:15;11.40;79.30
21108;DHT22;10712;52.944;9.098;2023-04-24T03:58:41;11.40;79.30
21108;DHT22;10712;52.944;9.098;2023-04-24T04:01:07;11.30;79.30
21108;DHT22;10712;52.944;9.098;2023-04-24T04:03:43;11.30;79.60
21108;DHT22;10712;52.944;9.098;2023-04-24T04:06:10;11.30;79.70
21108;DHT22;10712;52.944;9.098;2023-04-24T04:08:37;11.30;79.50
21108;DHT22;10712;52.944;9.098;2023-04-24T04:11:03;11.40;78.80
21108;DHT22;10712;52.944;9.098;2023-04-24T04:13:28;11.30;78.90
21108;DHT22;10712;52.944;9.098;2023-04-24T04:15:55;11.30;79.30
21108;DHT22;10712;52.944;9.098;2023-04-24T04:18:20;11.30;79.60
21108;DHT22;10712;52.944;9.098;2023-04-24T04:20:47;11.20;79.80
21108;DHT22;10712;52.944;9.098;2023-04-24T04:23:14;11.20;79.80
21108;DHT22;10712;52.944;9.098;2023-04-24T04:25:53;11.20;78.80
21108;DHT22;10712;52.944;9.098;2023-04-24T04:28:23;11.20;78.50
21108;DHT22;10712;52.944;9.098;2023-04-24T04:30:50;11.20;78.50
21108;DHT22;10712;52.944;9.098;2023-04-24T04:33:22;11.10;78.40
21108;DHT22;10712;52.944;9.098;2023-04-24T04:35:49;11.10;78.50
21108;DHT22;10712;52.944;9.098;2023-04-24T04:38:19;11.10;78.60
21108;DHT22;10712;52.944;9.098;2023-04-24T04:40:56;11.00;78.50
21108;DHT22;10712;52.944;9.098;2023-04-24T04:43:24;11.00;78.60
21108;DHT22;10712;52.944;9.098;2023-04-24T04:45:52;11.00;78.70
21108;DHT22;10712;52.944;9.098;2023-04-24T04:48:38;10.90;78.90
21108;DHT22;10712;52.944;9.098;2023-04-24T04:51:06;10.90;78.90
21108;DHT22;10712;52.944;9.098;2023-04-24T04:53:32;10.90;79.20
21108;DHT22;10712;52.944;9.098;2023-04-24T04:55:58;10.80;79.30
21108;DHT22;10712;52.944;9.098;2023-04-24T04:58:38;10.80;79.50
21108;DHT22;10712;52.944;9.098;2023-04-24T05:01:07;10.80;79.50
21108;DHT22;10712;52.944;9.098;2023-04-24T05:03:38;10.80;79.30
21108;DHT22;10712;52.944;9.098;2023-04-24T05:06:08;10.80;79.70
21108;DHT22;10712;52.944;9.098;2023-04-24T05:08:37;10.80;79.10
21108;DHT22;10712;52.944;9.098;2023-04-24T05:11:05;10.80;78.90
21108;DHT22;10712;52.944;9.098;2023-04-24T05:13:31;10.80;79.20
21108;DHT22;10712;52.944;9.098;2023-04-24T05:15:58;10.80;79.40
21108;DHT22;10712;52.944;9.098;2023-04-24T05:18:24;10.80;79.50
21108;DHT22;10712;52.944;9.098;2023-04-24T05:20:50;10.80;79.50
21108;DHT22;10712;52.944;9.098;2023-04-24T05:23:16;10.80;79.70
21108;DHT22;10712;52.944;9.098;2023-04-24T05:25:45;10.80;79.80
21108;DHT22;10712;52.944;9.098;2023-04-24T05:28:12;10.80;79.30
21108;DHT22;10712;52.944;9.098;2023-04-24T05:30:38;10.90;78.80
21108;DHT22;10712;52.944;9.098;2023-04-24T05:33:05;10.90;79.00
21108;DHT22;10712;52.944;9.098;2023-04-24T05:35:33;10.90;79.30
21108;DHT22;10712;52.944;9.098;2023-04-24T05:38:00;10.90;79.20
21108;DHT22;10712;52.944;9.098;2023-04-24T05:40:25;10.90;79.10
21108;DHT22;10712;52.944;9.098;2023-04-24T05:42:51;10.90;78.80
21108;DHT22;10712;52.944;9.098;2023-04-24T05:45:17;10.90;78.90
21108;DHT22;10712;52.944;9.098;2023-04-24T05:47:43;10.90;79.20
21108;DHT22;10712;52.944;9.098;2023-04-24T05:50:11;10.90;79.40
21108;DHT22;10712;52.944;9.098;2023-04-24T05:52:37;10.90;79.80
21108;DHT22;10712;52.944;9.098;2023-04-24T05:55:10;10.90;79.50
21108;DHT22;10712;52.944;9.098;2023-04-24T05:57:38;11.00;79.00
21108;DHT22;10712;52.944;9.098;2023-04-24T06:00:04;11.00;79.00
21108;DHT22;10712;52.944;9.098;2023-04-24T06:02:39;11.00;79.00
21108;DHT22;10712;52.944;9.098;2023-04-24T06:05:07;11.10;79.20
21108;DHT22;10712;52.944;9.098;2023-04-24T06:07:33;11.10;79.40
21108;DHT22;10712;52.944;9.098;2023-04-24T06:10:03;11.10;79.40
21108;DHT22;10712;52.944;9.098;2023-04-24T06:12:36;11.10;79.00
21108;DHT22;10712;52.944;9.098;2023-04-24T06:15:07;11.10;79.20
21108;DHT22;10712;52.944;9.098;2023-04-24T06:17:48;11.10;79.30
21108;DHT22;10712;52.944;9.098;2023-04-24T06:20:16;11.20;79.60
21108;DHT22;10712;52.944;9.098;2023-04-24T06:22:41;11.20;79.00
21108;DHT22;10712;52.944;9.098;2023-04-24T06:25:09;11.20;79.00
21108;DHT22;10712;52.944;9.098;2023-04-24T06:27:35;11.30;79.20
21108;DHT22;10712;52.944;9.098;2023-04-24T06:30:01;11.40;79.00
21108;DHT22;10712;52.944;9.098;2023-04-24T06:32:31;11.40;79.20
21108;DHT22;10712;52.944;9.098;2023-04-24T06:35:06;11.50;79.20
21108;DHT22;10712;52.944;9.098;2023-04-24T06:37:33;11.60;79.20
21108;DHT22;10712;52.944;9.098;2023-04-24T06:39:59;11.60;78.50
21108;DHT22;10712;52.944;9.098;2023-04-24T06:42:25;11.70;78.40
21108;DHT22;10712;52.944;9.098;2023-04-24T06:44:50;11.70;78.60
21108;DHT22;10712;52.944;9.098;2023-04-24T06:47:16;11.70;78.60
21108;DHT22;10712;52.944;9.098;2023-04-24T06:49:42;11.60;78.70
21108;DHT22;10712;52.944;9.098;2023-04-24T06:52:08;11.60;78.70
21108;DHT22;10712;52.944;9.098;2023-04-24T06:54:34;11.60;78.70
21108;DHT22;10712;52.944;9.098;2023-04-24T06:57:00;11.60;78.60
21108;DHT22;10712;52.944;9.098;2023-04-24T06:59:28;11.60;78.70
21108;DHT22;10712;52.944;9.098;2023-04-24T07:01:54;11.50;79.20
21108;DHT22;10712;52.944;9.098;2023-04-24T07:04:20;11.60;78.90
21108;DHT22;10712;52.944;9.098;2023-04-24T07:06:47;11.60;78.80
21108;DHT22;10712;52.944;9.098;2023-04-24T07:09:15;11.60;78.30
21108;DHT22;10712;52.944;9.098;2023-04-24T07:11:44;11.60;78.40
21108;DHT22;10712;52.944;9.098;2023-04-24T07:14:11;11.60;78.60
21108;DHT22;10712;52.944;9.098;2023-04-24T07:16:37;11.60;78.60
21108;DHT22;10712;52.944;9.098;2023-04-24T07:19:03;11.70;78.90
21108;DHT22;10712;52.944;9.098;2023-04-24T07:21:29;11.70;78.90
21108;DHT22;10712;52.944;9.098;2023-04-24T07:23:58;11.80;78.80
21108;DHT22;10712;52.944;9.098;2023-04-24T07:26:25;11.80;78.70
21108;DHT22;10712;52.944;9.098;2023-04-24T07:28:51;11.90;78.10
21108;DHT22;10712;52.944;9.098;2023-04-24T07:31:17;11.90;77.60
21108;DHT22;10712;52.944;9.098;2023-04-24T07:33:43;11.90;77.80
21108;DHT22;10712;52.944;9.098;2023-04-24T07:36:08;11.90;77.00
21108;DHT22;10712;52.944;9.098;2023-04-24T07:38:41;12.00;77.00
21108;DHT22;10712;52.944;9.098;2023-04-24T07:41:07;12.00;77.30
21108;DHT22;10712;52.944;9.098;2023-04-24T07:43:33;12.00;77.30
21108;DHT22;10712;52.944;9.098;2023-04-24T07:46:00;12.00;76.80
21108;DHT22;10712;52.944;9.098;2023-04-24T07:48:26;11.90;76.90
21108;DHT22;10712;52.944;9.098;2023-04-24T07:50:53;11.90;77.00
21108;DHT22;10712;52.944;9.098;2023-04-24T07:53:19;11.90;76.70
21108;DHT22;10712;52.944;9.098;2023-04-24T07:55:46;11.90;77.00
21108;DHT22;10712;52.944;9.098;2023-04-24T07:58:12;12.00;77.60
21108;DHT22;10712;52.944;9.098;2023-04-24T08:00:38;12.00;77.70
21108;DHT22;10712;52.944;9.098;2023-04-24T08:03:03;12.00;77.90
21108;DHT22;10712;52.944;9.098;2023-04-24T08:05:29;12.10;77.70
21108;DHT22;10712;52.944;9.098;2023-04-24T08:07:55;12.10;77.00
21108;DHT22;10712;52.944;9.098;2023-04-24T08:10:23;12.10;75.80
21108;DHT22;10712;52.944;9.098;2023-04-24T08:12:49;12.20;76.00
21108;DHT22;10712;52.944;9.098;2023-04-24T08:15:15;12.10;76.40
21108;DHT22;10712;52.944;9.098;2023-04-24T08:17:40;12.10;76.80
21108;DHT22;10712;52.944;9.098;2023-04-24T08:20:08;12.10;77.00
21108;DHT22;10712;52.944;9.098;2023-04-24T08:22:41;12.10;77.00
21108;DHT22;10712;52.944;9.098;2023-04-24T08:25:10;12.10;76.80
21108;DHT22;10712;52.944;9.098;2023-04-24T08:27:36;12.00;76.70
21108;DHT22;10712;52.944;9.098;2023-04-24T08:30:03;12.00;76.90
21108;DHT22;10712;52.944;9.098;2023-04-24T08:32:30;11.90;77.30
21108;DHT22;10712;52.944;9.098;2023-04-24T08:34:56;11.90;77.40
21108;DHT22;10712;52.944;9.098;2023-04-24T08:37:23;11.90;77.40
21108;DHT22;10712;52.944;9.098;2023-04-24T08:39:50;11.90;77.50
21108;DHT22;10712;52.944;9.098;2023-04-24T08:42:18;11.90;77.70
21108;DHT22;10712;52.944;9.098;2023-04-24T08:44:45;11.90;77.10
21108;DHT22;10712;52.944;9.098;2023-04-24T08:47:11;11.90;77.00
21108;DHT22;10712;52.944;9.098;2023-04-24T08:49:38;11.90;77.20
21108;DHT22;10712;52.944;9.098;2023-04-24T08:52:07;11.90;77.40
21108;DHT22;10712;52.944;9.098;2023-04-24T08:54:36;11.90;77.20
21108;DHT22;10712;52.944;9.098;2023-04-24T08:57:03;11.90;76.20
21108;DHT22;10712;52.944;9.098;2023-04-24T08:59:30;11.90;76.40
21108;DHT22;10712;52.944;9.098;2023-04-24T09:01:57;12.00;76.90
21108;DHT22;10712;52.944;9.098;2023-04-24T09:04:24;12.00;76.50
21108;DHT22;10712;52.944;9.098;2023-04-24T09:06:53;12.10;76.10
21108;DHT22;10712;52.944;9.098;2023-04-24T09:09:21;12.10;76.00
21108;DHT22;10712;52.944;9.098;2023-04-24T09:11:49;12.10;76.10
21108;DHT22;10712;52.944;9.098;2023-04-24T09:14:17;12.10;76.60
21108;DHT22;10712;52.944;9.098;2023-04-24T09:16:43;12.10;76.30
21108;DHT22;10712;52.944;9.098;2023-04-24T09:19:09;12.10;76.40
21108;DHT22;10712;52.944;9.098;2023-04-24T09:21:35;12.10;76.20
21108;DHT22;10712;52.944;9.098;2023-04-24T09:24:07;12.10;76.10
21108;DHT22;10712;52.944;9.098;2023-04-24T09:26:39;12.10;75.40
21108;DHT22;10712;52.944;9.098;2023-04-24T09:29:05;12.10;75.50
21108;DHT22;10712;52.944;9.098;2023-04-24T09:31:31;12.20;74.70
21108;DHT22;10712;52.944;9.098;2023-04-24T09:34:02;12.20;75.00
21108;DHT22;10712;52.944;9.098;2023-04-24T09:36:42;12.30;74.40
21108;DHT22;10712;52.944;9.098;2023-04-24T09:39:13;12.40;75.10
21108;DHT22;10712;52.944;9.098;2023-04-24T09:41:50;12.50;74.20
21108;DHT22;10712;52.944;9.098;2023-04-24T09:44:24;12.60;74.60
21108;DHT22;10712;52.944;9.098;2023-04-24T09:46:56;12.70;74.40
21108;DHT22;10712;52.944;9.098;2023-04-24T09:49:29;12.70;74.10
21108;DHT22;10712;52.944;9.098;2023-04-24T09:52:11;12.80;72.30
21108;DHT22;10712;52.944;9.098;2023-04-24T09:54:37;12.80;72.40
21108;DHT22;10712;52.944;9.098;2023-04-24T09:57:04;12.80;72.60
21108;DHT22;10712;52.944;9.098;2023-04-24T09:59:30;12.70;72.80
21108;DHT22;10712;52.944;9.098;2023-04-24T10:01:56;12.70;72.60
21108;DHT22;10712;52.944;9.098;2023-04-24T10:04:25;12.60;72.80
21108;DHT22;10712;52.944;9.098;2023-04-24T10:06:54;12.60;73.00
21108;DHT22;10712;52.944;9.098;2023-04-24T10:09:26;12.60;73.00
21108;DHT22;10712;52.944;9.098;2023-04-24T10:11:53;12.60;72.60
21108;DHT22;10712;52.944;9.098;2023-04-24T10:14:22;12.50;72.40
21108;DHT22;10712;52.944;9.098;2023-04-24T10:16:53;12.50;72.20
21108;DHT22;10712;52.944;9.098;2023-04-24T10:19:20;12.50;72.40
21108;DHT22;10712;52.944;9.098;2023-04-24T10:21:46;12.50;72.70
21108;DHT22;10712;52.944;9.098;2023-04-24T10:24:21;12.50;73.40
21108;DHT22;10712;52.944;9.098;2023-04-24T10:26:47;12.50;73.20
21108;DHT22;10712;52.944;9.098;2023-04-24T10:29:16;12.40;73.20
21108;DHT22;10712;52.944;9.098;2023-04-24T10:31:43;12.40;73.50
21108;DHT22;10712;52.944;9.098;2023-04-24T10:34:15;12.40;73.80
21108;DHT22;10712;52.944;9.098;2023-04-24T10:36:47;12.40;74.10
21108;DHT22;10712;52.944;9.098;2023-04-24T10:39:16;12.40;74.30
21108;DHT22;10712;52.944;9.098;2023-04-24T10:41:44;12.40;74.40
21108;DHT22;10712;52.944;9.098;2023-04-24T10:44:14;12.40;74.10
21108;DHT22;10712;52.944;9.098;2023-04-24T10:46:46;12.40;74.10
21108;DHT22;10712;52.944;9.098;2023-04-24T10:49:13;12.40;74.20
21108;DHT22;10712;52.944;9.098;2023-04-24T10:51:50;12.40;74.20
21108;DHT22;10712;52.944;9.098;2023-04-24T10:59:43;12.40;73.30
21108;DHT22;10712;52.944;9.098;2023-04-24T11:02:10;12.50;72.60
21108;DHT22;10712;52.944;9.098;2023-04-24T11:04:36;12.50;73.20
21108;DHT22;10712;52.944;9.098;2023-04-24T11:07:05;12.50;73.80
21108;DHT22;10712;52.944;9.098;2023-04-24T11:09:31;12.50;74.40
21108;DHT22;10712;52.944;9.098;2023-04-24T11:12:05;12.60;74.30
21108;DHT22;10712;52.944;9.098;2023-04-24T11:17:42;12.60;73.90
21108;DHT22;10712;52.944;9.098;2023-04-24T11:20:15;12.60;73.30
21108;DHT22;10712;52.944;9.098;2023-04-24T11:22:43;12.60;72.70
21108;DHT22;10712;52.944;9.098;2023-04-24T11:25:09;12.50;72.80
21108;DHT22;10712;52.944;9.098;2023-04-24T11:27:43;12.40;72.60
21108;DHT22;10712;52.944;9.098;2023-04-24T11:30:17;12.40;73.20
21108;DHT22;10712;52.944;9.098;2023-04-24T11:32:48;12.40;74.00
21108;DHT22;10712;52.944;9.098;2023-04-24T11:35:20;12.40;74.00
21108;DHT22;10712;52.944;9.098;2023-04-24T11:37:52;12.40;73.30
21108;DHT22;10712;52.944;9.098;2023-04-24T11:40:20;12.40;73.20
21108;DHT22;10712;52.944;9.098;2023-04-24T11:42:52;12.50;73.70
21108;DHT22;10712;52.944;9.098;2023-04-24T11:45:24;12.40;73.00
21108;DHT22;10712;52.944;9.098;2023-04-24T11:47:55;12.50;73.40
21108;DHT22;10712;52.944;9.098;2023-04-24T11:50:23;12.50;73.30
21108;DHT22;10712;52.944;9.098;2023-04-24T11:52:55;12.50;73.00
21108;DHT22;10712;52.944;9.098;2023-04-24T11:57:49;12.40;72.80
21108;DHT22;10712;52.944;9.098;2023-04-24T12:00:21;12.40;73.40
21108;DHT22;10712;52.944;9.098;2023-04-24T12:03:12;12.40;73.30
21108;DHT22;10712;52.944;9.098;2023-04-24T12:05:38;12.40;74.20
21108;DHT22;10712;52.944;9.098;2023-04-24T12:08:05;12.50;74.50
21108;DHT22;10712;52.944;9.098;2023-04-24T12:10:32;12.50;73.50
21108;DHT22;10712;52.944;9.098;2023-04-24T12:12:59;12.60;73.70
21108;DHT22;10712;52.944;9.098;2023-04-24T12:15:26;12.60;73.20
21108;DHT22;10712;52.944;9.098;2023-04-24T12:17:55;12.60;73.60
21108;DHT22;10712;52.944;9.098;2023-04-24T12:20:31;12.60;73.80
21108;DHT22;10712;52.944;9.098;2023-04-24T12:22:59;12.60;73.20
21108;DHT22;10712;52.944;9.098;2023-04-24T12:25:30;12.60;73.60
21108;DHT22;10712;52.944;9.098;2023-04-24T12:30:30;12.60;73.80
21108;DHT22;10712;52.944;9.098;2023-04-24T12:32:58;12.60;73.90
21108;DHT22;10712;52.944;9.098;2023-04-24T12:35:27;12.50;74.00
21108;DHT22;10712;52.944;9.098;2023-04-24T12:37:55;12.50;75.00
21108;DHT22;10712;52.944;9.098;2023-04-24T12:40:21;12.50;75.40
21108;DHT22;10712;52.944;9.098;2023-04-24T12:42:51;12.50;75.70
21108;DHT22;10712;52.944;9.098;2023-04-24T12:45:18;12.50;75.20
21108;DHT22;10712;52.944;9.098;2023-04-24T12:47:45;12.50;75.70
21108;DHT22;10712;52.944;9.098;2023-04-24T12:50:15;12.40;75.90
21108;DHT22;10712;52.944;9.098;2023-04-24T12:52:42;12.40;75.70
21108;DHT22;10712;52.944;9.098;2023-04-24T12:55:09;12.40;77.10
21108;DHT22;10712;52.944;9.098;2023-04-24T12:57:36;12.30;78.20
21108;DHT22;10712;52.944;9.098;2023-04-24T13:00:05;12.20;78.90
21108;DHT22;10712;52.944;9.098;2023-04-24T13:02:33;12.10;79.60
21108;DHT22;10712;52.944;9.098;2023-04-24T13:05:00;11.90;80.40
21108;DHT22;10712;52.944;9.098;2023-04-24T13:07:26;11.90;81.40
21108;DHT22;10712;52.944;9.098;2023-04-24T13:09:53;11.80;82.00
21108;DHT22;10712;52.944;9.098;2023-04-24T13:12:20;11.70;82.80
21108;DHT22;10712;52.944;9.098;2023-04-24T13:14:49;11.70;83.10
21108;DHT22;10712;52.944;9.098;2023-04-24T13:17:15;11.60;83.50
21108;DHT22;10712;52.944;9.098;2023-04-24T13:19:43;11.60;84.20
21108;DHT22;10712;52.944;9.098;2023-04-24T13:22:11;11.50;84.80
21108;DHT22;10712;52.944;9.098;2023-04-24T13:24:38;11.40;84.50
21108;DHT22;10712;52.944;9.098;2023-04-24T13:27:06;11.30;84.50
21108;DHT22;10712;52.944;9.098;2023-04-24T13:29:32;11.10;85.00
21108;DHT22;10712;52.944;9.098;2023-04-24T13:31:58;11.00;86.00
21108;DHT22;10712;52.944;9.098;2023-04-24T13:34:25;10.90;86.30
21108;DHT22;10712;52.944;9.098;2023-04-24T13:36:53;10.90;86.30
21108;DHT22;10712;52.944;9.098;2023-04-24T13:39:22;10.80;85.80
21108;DHT22;10712;52.944;9.098;2023-04-24T13:41:48;10.70;85.80
21108;DHT22;10712;52.944;9.098;2023-04-24T13:44:18;10.60;86.10
21108;DHT22;10712;52.944;9.098;2023-04-24T13:46:48;10.50;86.70
21108;DHT22;10712;52.944;9.098;2023-04-24T13:49:16;10.50;87.30
21108;DHT22;10712;52.944;9.098;2023-04-24T13:51:42;10.40;87.50
21108;DHT22;10712;52.944;9.098;2023-04-24T13:54:09;10.30;87.70
21108;DHT22;10712;52.944;9.098;2023-04-24T13:56:35;10.30;86.90
21108;DHT22;10712;52.944;9.098;2023-04-24T13:59:01;10.20;86.50
21108;DHT22;10712;52.944;9.098;2023-04-24T14:01:27;10.10;86.90
21108;DHT22;10712;52.944;9.098;2023-04-24T14:03:54;10.00;87.30
21108;DHT22;10712;52.944;9.098;2023-04-24T14:06:21;9.90;87.50
21108;DHT22;10712;52.944;9.098;2023-04-24T14:08:49;9.80;87.80
21108;DHT22;10712;52.944;9.098;2023-04-24T14:11:16;9.80;88.10
21108;DHT22;10712;52.944;9.098;2023-04-24T14:13:43;9.80;88.40
21108;DHT22;10712;52.944;9.098;2023-04-24T14:16:10;9.80;88.40
21108;DHT22;10712;52.944;9.098;2023-04-24T14:18:36;9.70;88.50
21108;DHT22;10712;52.944;9.098;2023-04-24T14:21:03;9.70;88.60
21108;DHT22;10712;52.944;9.098;2023-04-24T14:23:29;9.60;88.70
21108;DHT22;10712;52.944;9.098;2023-04-24T14:25:57;9.60;88.70
21108;DHT22;10712;52.944;9.098;2023-04-24T14:28:24;9.50;88.80
21108;DHT22;10712;52.944;9.098;2023-04-24T14:30:50;9.40;89.00
21108;DHT22;10712;52.944;9.098;2023-04-24T14:33:17;9.40;89.10
21108;DHT22;10712;52.944;9.098;2023-04-24T14:35:43;9.40;89.10
21108;DHT22;10712;52.944;9.098;2023-04-24T14:38:09;9.30;88.90
21108;DHT22;10712;52.944;9.098;2023-04-24T14:40:35;9.30;88.80
21108;DHT22;10712;52.944;9.098;2023-04-24T14:43:01;9.30;88.60
21108;DHT22;10712;52.944;9.098;2023-04-24T14:45:27;9.30;88.60
21108;DHT22;10712;52.944;9.098;2023-04-24T14:47:54;9.20;88.70
21108;DHT22;10712;52.944;9.098;2023-04-24T14:50:20;9.20;88.80
21108;DHT22;10712;52.944;9.098;2023-04-24T14:52:46;9.20;88.80
21108;DHT22;10712;52.944;9.098;2023-04-24T14:55:12;9.20;89.00
21108;DHT22;10712;52.944;9.098;2023-04-24T14:57:39;9.10;89.20
21108;DHT22;10712;52.944;9.098;2023-04-24T15:00:06;9.10;89.30
21108;DHT22;10712;52.944;9.098;2023-04-24T15:02:35;9.10;89.10
21108;DHT22;10712;52.944;9.098;2023-04-24T15:05:05;9.10;88.90
21108;DHT22;10712;52.944;9.098;2023-04-24T15:07:32;9.10;88.60
21108;DHT22;10712;52.944;9.098;2023-04-24T15:09:58;9.10;88.40
21108;DHT22;10712;52.944;9.098;2023-04-24T15:12:24;9.00;88.60
21108;DHT22;10712;52.944;9.098;2023-04-24T15:14:50;9.00;88.50
21108;DHT22;10712;52.944;9.098;2023-04-24T15:17:16;9.00;88.60
21108;DHT22;10712;52.944;9.098;2023-04-24T15:19:41;9.00;88.70
21108;DHT22;10712;52.944;9.098;2023-04-24T15:22:07;9.00;88.90
21108;DHT22;10712;52.944;9.098;2023-04-24T15:24:33;9.00;89.10
21108;DHT22;10712;52.944;9.098;2023-04-24T15:26:59;9.00;89.30
21108;DHT22;10712;52.944;9.098;2023-04-24T15:29:27;9.00;89.50
21108;DHT22;10712;52.944;9.098;2023-04-24T15:31:53;9.00;89.60
21108;DHT22;10712;52.944;9.098;2023-04-24T15:34:19;9.00;89.80
21108;DHT22;10712;52.944;9.098;2023-04-24T15:36:45;9.00;89.90
21108;DHT22;10712;52.944;9.098;2023-04-24T15:39:11;9.00;90.00
21108;DHT22;10712;52.944;9.098;2023-04-24T15:41:37;9.10;90.00
21108;DHT22;10712;52.944;9.098;2023-04-24T15:44:03;9.10;89.90
21108;DHT22;10712;52.944;9.098;2023-04-24T15:46:29;9.10;90.00
21108;DHT22;10712;52.944;9.098;2023-04-24T15:48:54;9.10;90.10